sensor_id;sensor_type;location;lat;lon;timestamp;P1;durP1;ratioP1;P2;durP2;ratioP2
8401;SDS011;4238;48.404;9.498;2022-09-01T00:00:37;22.33;;;20.05;;
8401;SDS011;4238;48.404;9.498;2022-09-01T00:03:06;24.17;;;21.52;;
8401;SDS011;4238;48.404;9.498;2022-09-01T00:05:35;24.95;;;21.25;;
8401;SDS011;4238;48.404;9.498;2022-09-01T00:08:02;24.83;;;22.05;;
8401;SDS011;4238;48.404;9.498;2022-09-01T00:10:29;26.13;;;21.67;;
8401;SDS011;4238;48.404;9.498;2022-09-01T00:12:56;28.23;;;23.58;;
8401;SDS011;4238;48.404;9.498;2022-09-01T00:15:24;27.85;;;24.40;;
8401;SDS011;4238;48.404;9.498;2022-09-01T00:17:52;30.02;;;24.88;;
8401;SDS011;4238;48.404;9.498;2022-09-01T00:20:19;26.92;;;23.23;;
8401;SDS011;4238;48.404;9.498;2022-09-01T00:22:46;26.33;;;23.30;;
8401;SDS011;4238;48.404;9.498;2022-09-01T00:25:14;25.75;;;22.80;;
8401;SDS011;4238;48.404;9.498;2022-09-01T00:27:44;25.70;;;22.90;;
8401;SDS011;4238;48.404;9.498;2022-09-01T00:30:12;22.40;;;20.13;;
8401;SDS011;4238;48.404;9.498;2022-09-01T00:32:39;20.30;;;18.27;;
8401;SDS011;4238;48.404;9.498;2022-09-01T00:35:12;20.92;;;18.73;;
8401;SDS011;4238;48.404;9.498;2022-09-01T00:37:39;18.85;;;16.95;;
8401;SDS011;4238;48.404;9.498;2022-09-01T00:40:07;20.65;;;18.48;;
8401;SDS011;4238;48.404;9.498;2022-09-01T00:42:35;20.73;;;18.55;;
8401;SDS011;4238;48.404;9.498;2022-09-01T00:45:04;20.92;;;18.00;;
8401;SDS011;4238;48.404;9.498;2022-09-01T00:47:33;21.52;;;19.25;;
8401;SDS011;4238;48.404;9.498;2022-09-01T00:50:00;22.67;;;20.13;;
8401;SDS011;4238;48.404;9.498;2022-09-01T00:52:35;22.52;;;20.13;;
8401;SDS011;4238;48.404;9.498;2022-09-01T00:55:07;22.73;;;20.42;;
8401;SDS011;4238;48.404;9.498;2022-09-01T00:57:36;24.42;;;19.88;;
8401;SDS011;4238;48.404;9.498;2022-09-01T01:00:06;20.45;;;18.40;;
8401;SDS011;4238;48.404;9.498;2022-09-01T01:02:36;21.15;;;18.75;;
8401;SDS011;4238;48.404;9.498;2022-09-01T01:05:04;23.13;;;19.30;;
8401;SDS011;4238;48.404;9.498;2022-09-01T01:07:31;22.30;;;19.90;;
8401;SDS011;4238;48.404;9.498;2022-09-01T01:10:09;21.52;;;19.25;;
8401;SDS011;4238;48.404;9.498;2022-09-01T01:12:40;20.45;;;18.20;;
8401;SDS011;4238;48.404;9.498;2022-09-01T01:15:08;20.83;;;18.67;;
8401;SDS011;4238;48.404;9.498;2022-09-01T01:17:36;21.88;;;19.35;;
8401;SDS011;4238;48.404;9.498;2022-09-01T01:20:04;22.73;;;20.27;;
8401;SDS011;4238;48.404;9.498;2022-09-01T01:22:54;21.10;;;18.90;;
8401;SDS011;4238;48.404;9.498;2022-09-01T01:25:32;21.65;;;18.55;;
8401;SDS011;4238;48.404;9.498;2022-09-01T01:28:09;20.42;;;18.02;;
8401;SDS011;4238;48.404;9.498;2022-09-01T01:30:43;23.20;;;20.42;;
8401;SDS011;4238;48.404;9.498;2022-09-01T01:33:15;20.37;;;18.20;;
8401;SDS011;4238;48.404;9.498;2022-09-01T01:35:42;21.90;;;19.58;;
8401;SDS011;4238;48.404;9.498;2022-09-01T01:38:09;21.15;;;18.95;;
8401;SDS011;4238;48.404;9.498;2022-09-01T01:40:37;20.38;;;18.23;;
8401;SDS011;4238;48.404;9.498;2022-09-01T01:43:05;22.48;;;19.00;;
8401;SDS011;4238;48.404;9.498;2022-09-01T01:45:32;21.90;;;19.60;;
8401;SDS011;4238;48.404;9.498;2022-09-01T01:47:59;20.52;;;18.08;;
8401;SDS011;4238;48.404;9.498;2022-09-01T01:50:31;20.75;;;18.02;;
8401;SDS011;4238;48.404;9.498;2022-09-01T01:53:02;17.77;;;16.08;;
8401;SDS011;4238;48.404;9.498;2022-09-01T01:55:30;19.83;;;17.83;;
8401;SDS011;4238;48.404;9.498;2022-09-01T01:57:59;20.13;;;18.02;;
8401;SDS011;4238;48.404;9.498;2022-09-01T02:00:27;20.25;;;18.20;;
8401;SDS011;4238;48.404;9.498;2022-09-01T02:02:56;21.60;;;19.30;;
8401;SDS011;4238;48.404;9.498;2022-09-01T02:05:25;23.88;;;19.65;;
8401;SDS011;4238;48.404;9.498;2022-09-01T02:07:53;22.10;;;19.65;;
8401;SDS011;4238;48.404;9.498;2022-09-01T02:10:23;22.95;;;20.50;;
8401;SDS011;4238;48.404;9.498;2022-09-01T02:12:55;25.08;;;22.45;;
8401;SDS011;4238;48.404;9.498;2022-09-01T02:15:30;22.85;;;20.33;;
8401;SDS011;4238;48.404;9.498;2022-09-01T02:17:59;23.47;;;20.97;;
8401;SDS011;4238;48.404;9.498;2022-09-01T02:20:26;22.92;;;20.52;;
8401;SDS011;4238;48.404;9.498;2022-09-01T02:22:53;25.15;;;22.58;;
8401;SDS011;4238;48.404;9.498;2022-09-01T02:25:21;24.35;;;21.48;;
8401;SDS011;4238;48.404;9.498;2022-09-01T02:27:48;24.05;;;21.13;;
8401;SDS011;4238;48.404;9.498;2022-09-01T02:30:19;24.15;;;21.55;;
8401;SDS011;4238;48.404;9.498;2022-09-01T02:32:50;22.30;;;20.03;;
8401;SDS011;4238;48.404;9.498;2022-09-01T02:35:17;20.30;;;18.30;;
8401;SDS011;4238;48.404;9.498;2022-09-01T02:37:44;21.00;;;18.75;;
8401;SDS011;4238;48.404;9.498;2022-09-01T02:40:13;20.50;;;18.40;;
8401;SDS011;4238;48.404;9.498;2022-09-01T02:42:42;18.65;;;16.67;;
8401;SDS011;4238;48.404;9.498;2022-09-01T02:45:12;24.02;;;18.08;;
8401;SDS011;4238;48.404;9.498;2022-09-01T02:47:41;19.40;;;17.35;;
8401;SDS011;4238;48.404;9.498;2022-09-01T02:50:12;18.55;;;16.60;;
8401;SDS011;4238;48.404;9.498;2022-09-01T02:52:41;18.83;;;16.77;;
8401;SDS011;4238;48.404;9.498;2022-09-01T02:55:09;19.02;;;16.85;;
8401;SDS011;4238;48.404;9.498;2022-09-01T02:57:36;18.48;;;15.82;;
8401;SDS011;4238;48.404;9.498;2022-09-01T03:00:05;18.67;;;16.67;;
8401;SDS011;4238;48.404;9.498;2022-09-01T03:02:45;20.02;;;18.02;;
8401;SDS011;4238;48.404;9.498;2022-09-01T03:05:19;19.05;;;17.15;;
8401;SDS011;4238;48.404;9.498;2022-09-01T03:07:50;19.23;;;17.17;;
8401;SDS011;4238;48.404;9.498;2022-09-01T03:10:21;19.00;;;17.10;;
8401;SDS011;4238;48.404;9.498;2022-09-01T03:12:51;19.58;;;17.30;;
8401;SDS011;4238;48.404;9.498;2022-09-01T03:15:18;20.25;;;17.70;;
8401;SDS011;4238;48.404;9.498;2022-09-01T03:17:47;16.60;;;14.65;;
8401;SDS011;4238;48.404;9.498;2022-09-01T03:20:14;17.02;;;15.32;;
8401;SDS011;4238;48.404;9.498;2022-09-01T03:22:44;15.98;;;14.07;;
8401;SDS011;4238;48.404;9.498;2022-09-01T03:25:12;17.10;;;15.40;;
8401;SDS011;4238;48.404;9.498;2022-09-01T03:27:39;16.60;;;15.00;;
8401;SDS011;4238;48.404;9.498;2022-09-01T03:30:07;18.08;;;16.15;;
8401;SDS011;4238;48.404;9.498;2022-09-01T03:32:34;17.60;;;15.73;;
8401;SDS011;4238;48.404;9.498;2022-09-01T03:35:01;17.42;;;15.63;;
8401;SDS011;4238;48.404;9.498;2022-09-01T03:37:29;18.13;;;16.17;;
8401;SDS011;4238;48.404;9.498;2022-09-01T03:39:57;17.50;;;15.63;;
8401;SDS011;4238;48.404;9.498;2022-09-01T03:42:24;18.42;;;16.40;;
8401;SDS011;4238;48.404;9.498;2022-09-01T03:44:52;19.98;;;17.17;;
8401;SDS011;4238;48.404;9.498;2022-09-01T03:47:20;18.67;;;16.85;;
8401;SDS011;4238;48.404;9.498;2022-09-01T03:49:48;20.00;;;17.13;;
8401;SDS011;4238;48.404;9.498;2022-09-01T03:52:16;19.55;;;17.45;;
8401;SDS011;4238;48.404;9.498;2022-09-01T03:54:43;19.60;;;17.50;;
8401;SDS011;4238;48.404;9.498;2022-09-01T03:57:11;19.88;;;17.02;;
8401;SDS011;4238;48.404;9.498;2022-09-01T03:59:38;19.55;;;16.90;;
8401;SDS011;4238;48.404;9.498;2022-09-01T04:02:09;19.50;;;17.15;;
8401;SDS011;4238;48.404;9.498;2022-09-01T04:04:37;18.42;;;16.52;;
8401;SDS011;4238;48.404;9.498;2022-09-01T04:07:04;20.40;;;18.20;;
8401;SDS011;4238;48.404;9.498;2022-09-01T04:09:31;18.58;;;16.63;;
8401;SDS011;4238;48.404;9.498;2022-09-01T04:12:02;18.77;;;16.80;;
8401;SDS011;4238;48.404;9.498;2022-09-01T04:14:34;19.85;;;17.70;;
8401;SDS011;4238;48.404;9.498;2022-09-01T04:17:01;19.23;;;17.20;;
8401;SDS011;4238;48.404;9.498;2022-09-01T04:19:46;18.15;;;16.10;;
8401;SDS011;4238;48.404;9.498;2022-09-01T04:22:13;17.65;;;15.90;;
8401;SDS011;4238;48.404;9.498;2022-09-01T04:24:41;19.42;;;17.33;;
8401;SDS011;4238;48.404;9.498;2022-09-01T04:27:09;17.92;;;16.02;;
8401;SDS011;4238;48.404;9.498;2022-09-01T04:29:39;17.98;;;15.77;;
8401;SDS011;4238;48.404;9.498;2022-09-01T04:32:06;18.20;;;16.30;;
8401;SDS011;4238;48.404;9.498;2022-09-01T04:34:36;17.48;;;15.60;;
8401;SDS011;4238;48.404;9.498;2022-09-01T04:37:06;17.42;;;15.63;;
8401;SDS011;4238;48.404;9.498;2022-09-01T04:39:34;17.75;;;15.60;;
8401;SDS011;4238;48.404;9.498;2022-09-01T04:42:03;18.48;;;16.63;;
8401;SDS011;4238;48.404;9.498;2022-09-01T04:44:32;17.05;;;15.25;;
8401;SDS011;4238;48.404;9.498;2022-09-01T04:47:02;18.42;;;15.43;;
8401;SDS011;4238;48.404;9.498;2022-09-01T04:49:35;17.08;;;15.27;;
8401;SDS011;4238;48.404;9.498;2022-09-01T04:52:02;17.33;;;15.48;;
8401;SDS011;4238;48.404;9.498;2022-09-01T04:54:29;18.38;;;15.63;;
8401;SDS011;4238;48.404;9.498;2022-09-01T04:57:01;17.25;;;15.55;;
8401;SDS011;4238;48.404;9.498;2022-09-01T04:59:29;18.05;;;16.10;;
8401;SDS011;4238;48.404;9.498;2022-09-01T05:01:56;19.70;;;15.93;;
8401;SDS011;4238;48.404;9.498;2022-09-01T05:04:26;18.45;;;16.08;;
8401;SDS011;4238;48.404;9.498;2022-09-01T05:06:58;16.88;;;15.10;;
8401;SDS011;4238;48.404;9.498;2022-09-01T05:09:26;16.38;;;14.32;;
8401;SDS011;4238;48.404;9.498;2022-09-01T05:11:54;17.33;;;15.23;;
8401;SDS011;4238;48.404;9.498;2022-09-01T05:14:22;17.17;;;15.45;;
8401;SDS011;4238;48.404;9.498;2022-09-01T05:16:55;16.95;;;15.18;;
8401;SDS011;4238;48.404;9.498;2022-09-01T05:19:23;16.40;;;14.70;;
8401;SDS011;4238;48.404;9.498;2022-09-01T05:21:54;17.38;;;15.40;;
8401;SDS011;4238;48.404;9.498;2022-09-01T05:24:22;17.35;;;15.50;;
8401;SDS011;4238;48.404;9.498;2022-09-01T05:26:52;18.33;;;15.43;;
8401;SDS011;4238;48.404;9.498;2022-09-01T05:29:20;16.38;;;14.57;;
8401;SDS011;4238;48.404;9.498;2022-09-01T05:31:49;15.40;;;13.90;;
8401;SDS011;4238;48.404;9.498;2022-09-01T05:34:16;14.48;;;12.95;;
8401;SDS011;4238;48.404;9.498;2022-09-01T05:36:50;16.70;;;14.18;;
8401;SDS011;4238;48.404;9.498;2022-09-01T05:39:19;16.25;;;14.65;;
8401;SDS011;4238;48.404;9.498;2022-09-01T05:41:46;15.15;;;13.68;;
8401;SDS011;4238;48.404;9.498;2022-09-01T05:44:14;15.15;;;13.57;;
8401;SDS011;4238;48.404;9.498;2022-09-01T05:46:42;14.02;;;12.65;;
8401;SDS011;4238;48.404;9.498;2022-09-01T05:49:11;17.10;;;13.93;;
8401;SDS011;4238;48.404;9.498;2022-09-01T05:51:40;14.82;;;13.38;;
8401;SDS011;4238;48.404;9.498;2022-09-01T05:54:09;15.85;;;14.27;;
8401;SDS011;4238;48.404;9.498;2022-09-01T05:56:38;15.45;;;13.88;;
8401;SDS011;4238;48.404;9.498;2022-09-01T05:59:06;14.77;;;13.40;;
8401;SDS011;4238;48.404;9.498;2022-09-01T06:01:35;15.38;;;13.65;;
8401;SDS011;4238;48.404;9.498;2022-09-01T06:04:05;15.88;;;14.27;;
8401;SDS011;4238;48.404;9.498;2022-09-01T06:06:34;14.32;;;13.00;;
8401;SDS011;4238;48.404;9.498;2022-09-01T06:09:05;14.93;;;13.43;;
8401;SDS011;4238;48.404;9.498;2022-09-01T06:11:34;15.90;;;14.40;;
8401;SDS011;4238;48.404;9.498;2022-09-01T06:14:03;15.35;;;13.85;;
8401;SDS011;4238;48.404;9.498;2022-09-01T06:16:31;15.40;;;14.00;;
8401;SDS011;4238;48.404;9.498;2022-09-01T06:18:59;15.07;;;13.57;;
8401;SDS011;4238;48.404;9.498;2022-09-01T06:21:27;15.15;;;13.55;;
8401;SDS011;4238;48.404;9.498;2022-09-01T06:23:55;14.60;;;13.18;;
8401;SDS011;4238;48.404;9.498;2022-09-01T06:26:24;14.38;;;13.02;;
8401;SDS011;4238;48.404;9.498;2022-09-01T06:28:53;12.75;;;11.50;;
8401;SDS011;4238;48.404;9.498;2022-09-01T06:31:23;12.60;;;11.40;;
8401;SDS011;4238;48.404;9.498;2022-09-01T06:33:51;13.07;;;11.68;;
8401;SDS011;4238;48.404;9.498;2022-09-01T06:36:19;13.45;;;12.15;;
8401;SDS011;4238;48.404;9.498;2022-09-01T06:38:47;13.90;;;12.60;;
8401;SDS011;4238;48.404;9.498;2022-09-01T06:41:17;13.52;;;12.23;;
8401;SDS011;4238;48.404;9.498;2022-09-01T06:43:45;13.45;;;12.25;;
8401;SDS011;4238;48.404;9.498;2022-09-01T06:46:13;12.30;;;10.90;;
8401;SDS011;4238;48.404;9.498;2022-09-01T06:48:42;11.60;;;10.52;;
8401;SDS011;4238;48.404;9.498;2022-09-01T06:51:11;12.35;;;10.68;;
8401;SDS011;4238;48.404;9.498;2022-09-01T06:53:40;11.00;;;9.90;;
8401;SDS011;4238;48.404;9.498;2022-09-01T06:56:08;9.90;;;9.00;;
8401;SDS011;4238;48.404;9.498;2022-09-01T06:58:38;11.00;;;10.00;;
8401;SDS011;4238;48.404;9.498;2022-09-01T07:01:07;10.65;;;9.75;;
8401;SDS011;4238;48.404;9.498;2022-09-01T07:03:40;12.05;;;10.90;;
8401;SDS011;4238;48.404;9.498;2022-09-01T07:06:09;10.98;;;9.98;;
8401;SDS011;4238;48.404;9.498;2022-09-01T07:08:39;10.88;;;9.93;;
8401;SDS011;4238;48.404;9.498;2022-09-01T07:11:16;10.40;;;9.40;;
8401;SDS011;4238;48.404;9.498;2022-09-01T07:13:48;10.65;;;9.75;;
8401;SDS011;4238;48.404;9.498;2022-09-01T07:16:18;11.00;;;9.90;;
8401;SDS011;4238;48.404;9.498;2022-09-01T07:18:48;10.55;;;9.55;;
8401;SDS011;4238;48.404;9.498;2022-09-01T07:21:16;10.75;;;9.77;;
8401;SDS011;4238;48.404;9.498;2022-09-01T07:23:43;10.48;;;9.38;;
8401;SDS011;4238;48.404;9.498;2022-09-01T07:26:10;9.20;;;8.43;;
8401;SDS011;4238;48.404;9.498;2022-09-01T07:28:42;9.73;;;8.75;;
8401;SDS011;4238;48.404;9.498;2022-09-01T07:31:15;8.95;;;8.15;;
8401;SDS011;4238;48.404;9.498;2022-09-01T07:33:45;10.20;;;9.25;;
8401;SDS011;4238;48.404;9.498;2022-09-01T07:36:14;9.55;;;8.70;;
8401;SDS011;4238;48.404;9.498;2022-09-01T07:38:41;8.95;;;8.05;;
8401;SDS011;4238;48.404;9.498;2022-09-01T07:41:08;9.15;;;8.35;;
8401;SDS011;4238;48.404;9.498;2022-09-01T07:43:37;9.90;;;9.00;;
8401;SDS011;4238;48.404;9.498;2022-09-01T07:46:06;8.95;;;8.25;;
8401;SDS011;4238;48.404;9.498;2022-09-01T07:48:33;9.75;;;8.85;;
8401;SDS011;4238;48.404;9.498;2022-09-01T07:51:01;9.20;;;8.30;;
8401;SDS011;4238;48.404;9.498;2022-09-01T07:53:31;8.77;;;8.07;;
8401;SDS011;4238;48.404;9.498;2022-09-01T07:56:07;9.32;;;8.52;;
8401;SDS011;4238;48.404;9.498;2022-09-01T07:58:37;8.60;;;7.90;;
8401;SDS011;4238;48.404;9.498;2022-09-01T08:01:06;7.45;;;6.80;;
8401;SDS011;4238;48.404;9.498;2022-09-01T08:03:34;8.20;;;7.50;;
8401;SDS011;4238;48.404;9.498;2022-09-01T08:06:02;8.10;;;7.38;;
8401;SDS011;4238;48.404;9.498;2022-09-01T08:08:32;8.75;;;7.68;;
8401;SDS011;4238;48.404;9.498;2022-09-01T08:10:59;9.52;;;8.68;;
8401;SDS011;4238;48.404;9.498;2022-09-01T08:13:27;7.95;;;7.25;;
8401;SDS011;4238;48.404;9.498;2022-09-01T08:15:54;7.15;;;6.55;;
8401;SDS011;4238;48.404;9.498;2022-09-01T08:18:21;7.50;;;6.80;;
8401;SDS011;4238;48.404;9.498;2022-09-01T08:20:48;6.90;;;6.32;;
8401;SDS011;4238;48.404;9.498;2022-09-01T08:23:16;6.28;;;5.80;;
8401;SDS011;4238;48.404;9.498;2022-09-01T08:25:46;6.97;;;6.38;;
8401;SDS011;4238;48.404;9.498;2022-09-01T08:28:14;6.80;;;6.30;;
8401;SDS011;4238;48.404;9.498;2022-09-01T08:30:42;7.20;;;6.53;;
8401;SDS011;4238;48.404;9.498;2022-09-01T08:33:10;6.40;;;5.90;;
8401;SDS011;4238;48.404;9.498;2022-09-01T08:35:38;7.45;;;6.80;;
8401;SDS011;4238;48.404;9.498;2022-09-01T08:38:05;6.97;;;6.38;;
8401;SDS011;4238;48.404;9.498;2022-09-01T08:40:33;6.32;;;5.82;;
8401;SDS011;4238;48.404;9.498;2022-09-01T08:43:04;5.88;;;5.32;;
8401;SDS011;4238;48.404;9.498;2022-09-01T08:45:43;5.57;;;5.15;;
8401;SDS011;4238;48.404;9.498;2022-09-01T08:48:14;6.10;;;5.60;;
8401;SDS011;4238;48.404;9.498;2022-09-01T08:50:44;6.90;;;6.40;;
8401;SDS011;4238;48.404;9.498;2022-09-01T08:53:24;6.65;;;6.05;;
8401;SDS011;4238;48.404;9.498;2022-09-01T08:55:55;7.03;;;6.40;;
8401;SDS011;4238;48.404;9.498;2022-09-01T08:58:25;5.97;;;5.45;;
8401;SDS011;4238;48.404;9.498;2022-09-01T09:00:57;6.70;;;6.10;;
8401;SDS011;4238;48.404;9.498;2022-09-01T09:03:31;6.47;;;5.88;;
8401;SDS011;4238;48.404;9.498;2022-09-01T09:06:12;6.05;;;5.55;;
8401;SDS011;4238;48.404;9.498;2022-09-01T09:08:51;6.38;;;5.88;;
8401;SDS011;4238;48.404;9.498;2022-09-01T09:11:34;6.38;;;5.88;;
8401;SDS011;4238;48.404;9.498;2022-09-01T09:14:20;6.65;;;6.05;;
8401;SDS011;4238;48.404;9.498;2022-09-01T09:16:57;6.60;;;5.85;;
8401;SDS011;4238;48.404;9.498;2022-09-01T09:19:26;5.43;;;5.03;;
8401;SDS011;4238;48.404;9.498;2022-09-01T09:21:55;5.65;;;5.25;;
8401;SDS011;4238;48.404;9.498;2022-09-01T09:24:25;5.18;;;4.78;;
8401;SDS011;4238;48.404;9.498;2022-09-01T09:27:11;6.07;;;5.57;;
8401;SDS011;4238;48.404;9.498;2022-09-01T09:29:45;6.30;;;5.80;;
8401;SDS011;4238;48.404;9.498;2022-09-01T09:32:15;6.78;;;6.18;;
8401;SDS011;4238;48.404;9.498;2022-09-01T09:34:42;6.82;;;6.20;;
8401;SDS011;4238;48.404;9.498;2022-09-01T09:37:20;6.70;;;6.10;;
8401;SDS011;4238;48.404;9.498;2022-09-01T09:40:06;6.53;;;6.00;;
8401;SDS011;4238;48.404;9.498;2022-09-01T09:42:36;7.32;;;6.72;;
8401;SDS011;4238;48.404;9.498;2022-09-01T09:45:07;6.68;;;6.05;;
8401;SDS011;4238;48.404;9.498;2022-09-01T09:47:47;6.78;;;6.20;;
8401;SDS011;4238;48.404;9.498;2022-09-01T09:50:17;6.10;;;5.60;;
8401;SDS011;4238;48.404;9.498;2022-09-01T09:52:50;5.88;;;5.38;;
8401;SDS011;4238;48.404;9.498;2022-09-01T09:55:22;5.90;;;5.50;;
8401;SDS011;4238;48.404;9.498;2022-09-01T09:57:52;6.55;;;6.05;;
8401;SDS011;4238;48.404;9.498;2022-09-01T10:00:24;5.88;;;5.43;;
8401;SDS011;4238;48.404;9.498;2022-09-01T10:02:57;6.47;;;5.97;;
8401;SDS011;4238;48.404;9.498;2022-09-01T10:05:36;6.88;;;6.28;;
8401;SDS011;4238;48.404;9.498;2022-09-01T10:08:05;6.72;;;6.22;;
8401;SDS011;4238;48.404;9.498;2022-09-01T10:10:38;6.85;;;6.15;;
8401;SDS011;4238;48.404;9.498;2022-09-01T10:13:07;6.03;;;5.60;;
8401;SDS011;4238;48.404;9.498;2022-09-01T10:15:39;6.35;;;5.85;;
8401;SDS011;4238;48.404;9.498;2022-09-01T10:18:09;6.82;;;6.30;;
8401;SDS011;4238;48.404;9.498;2022-09-01T10:20:40;5.57;;;5.18;;
8401;SDS011;4238;48.404;9.498;2022-09-01T10:23:14;5.30;;;4.80;;
8401;SDS011;4238;48.404;9.498;2022-09-01T10:25:41;6.20;;;5.78;;
8401;SDS011;4238;48.404;9.498;2022-09-01T10:28:11;6.32;;;5.82;;
8401;SDS011;4238;48.404;9.498;2022-09-01T10:30:44;5.78;;;5.38;;
8401;SDS011;4238;48.404;9.498;2022-09-01T10:33:13;6.20;;;5.70;;
8401;SDS011;4238;48.404;9.498;2022-09-01T10:35:44;6.32;;;5.82;;
8401;SDS011;4238;48.404;9.498;2022-09-01T10:38:14;6.13;;;5.65;;
8401;SDS011;4238;48.404;9.498;2022-09-01T10:40:44;5.60;;;5.20;;
8401;SDS011;4238;48.404;9.498;2022-09-01T10:46:07;6.28;;;5.78;;
8401;SDS011;4238;48.404;9.498;2022-09-01T10:49:17;5.43;;;4.93;;
8401;SDS011;4238;48.404;9.498;2022-09-01T10:55:26;6.68;;;6.18;;
8401;SDS011;4238;48.404;9.498;2022-09-01T10:57:59;6.32;;;5.90;;
8401;SDS011;4238;48.404;9.498;2022-09-01T11:00:44;7.00;;;6.43;;
8401;SDS011;4238;48.404;9.498;2022-09-01T11:09:33;8.20;;;7.47;;
8401;SDS011;4238;48.404;9.498;2022-09-01T11:12:11;6.60;;;6.10;;
8401;SDS011;4238;48.404;9.498;2022-09-01T11:14:52;6.55;;;6.05;;
8401;SDS011;4238;48.404;9.498;2022-09-01T11:17:21;6.30;;;5.80;;
8401;SDS011;4238;48.404;9.498;2022-09-01T11:19:54;6.30;;;5.80;;
8401;SDS011;4238;48.404;9.498;2022-09-01T11:22:34;6.35;;;5.85;;
8401;SDS011;4238;48.404;9.498;2022-09-01T11:28:33;7.45;;;6.88;;
8401;SDS011;4238;48.404;9.498;2022-09-01T11:33:57;7.82;;;7.13;;
8401;SDS011;4238;48.404;9.498;2022-09-01T11:36:30;8.05;;;7.25;;
8401;SDS011;4238;48.404;9.498;2022-09-01T11:39:04;7.18;;;6.55;;
8401;SDS011;4238;48.404;9.498;2022-09-01T11:41:40;7.55;;;6.90;;
8401;SDS011;4238;48.404;9.498;2022-09-01T11:44:17;7.57;;;6.97;;
8401;SDS011;4238;48.404;9.498;2022-09-01T11:46:51;6.80;;;6.18;;
8401;SDS011;4238;48.404;9.498;2022-09-01T11:49:25;5.65;;;5.15;;
8401;SDS011;4238;48.404;9.498;2022-09-01T11:51:55;5.82;;;5.20;;
8401;SDS011;4238;48.404;9.498;2022-09-01T11:54:23;5.30;;;4.90;;
8401;SDS011;4238;48.404;9.498;2022-09-01T11:56:50;5.53;;;5.13;;
8401;SDS011;4238;48.404;9.498;2022-09-01T11:59:32;5.90;;;5.40;;
8401;SDS011;4238;48.404;9.498;2022-09-01T12:02:01;6.00;;;5.60;;
8401;SDS011;4238;48.404;9.498;2022-09-01T12:04:31;6.15;;;5.65;;
8401;SDS011;4238;48.404;9.498;2022-09-01T12:07:00;5.30;;;4.90;;
8401;SDS011;4238;48.404;9.498;2022-09-01T12:09:33;5.50;;;5.10;;
8401;SDS011;4238;48.404;9.498;2022-09-01T12:12:02;4.90;;;4.60;;
8401;SDS011;4238;48.404;9.498;2022-09-01T12:14:31;5.53;;;5.13;;
8401;SDS011;4238;48.404;9.498;2022-09-01T12:17:00;5.13;;;4.65;;
8401;SDS011;4238;48.404;9.498;2022-09-01T12:19:30;5.60;;;5.15;;
8401;SDS011;4238;48.404;9.498;2022-09-01T12:22:00;4.85;;;4.55;;
8401;SDS011;4238;48.404;9.498;2022-09-01T12:24:31;5.25;;;4.85;;
8401;SDS011;4238;48.404;9.498;2022-09-01T12:27:01;5.18;;;4.78;;
8401;SDS011;4238;48.404;9.498;2022-09-01T12:29:29;4.80;;;4.50;;
8401;SDS011;4238;48.404;9.498;2022-09-01T12:31:58;5.15;;;4.72;;
8401;SDS011;4238;48.404;9.498;2022-09-01T12:34:30;5.22;;;4.93;;
8401;SDS011;4238;48.404;9.498;2022-09-01T12:37:08;5.28;;;4.85;;
8401;SDS011;4238;48.404;9.498;2022-09-01T12:39:38;4.93;;;4.53;;
8401;SDS011;4238;48.404;9.498;2022-09-01T12:42:08;4.75;;;4.45;;
8401;SDS011;4238;48.404;9.498;2022-09-01T12:44:44;5.03;;;4.70;;
8401;SDS011;4238;48.404;9.498;2022-09-01T12:50:36;4.88;;;4.57;;
8401;SDS011;4238;48.404;9.498;2022-09-01T12:53:13;5.18;;;4.85;;
8401;SDS011;4238;48.404;9.498;2022-09-01T12:56:02;5.55;;;5.15;;
8401;SDS011;4238;48.404;9.498;2022-09-01T12:58:43;5.93;;;5.43;;
8401;SDS011;4238;48.404;9.498;2022-09-01T13:01:24;5.85;;;5.35;;
8401;SDS011;4238;48.404;9.498;2022-09-01T13:04:11;6.05;;;5.55;;
8401;SDS011;4238;48.404;9.498;2022-09-01T13:06:41;5.97;;;5.50;;
8401;SDS011;4238;48.404;9.498;2022-09-01T13:09:08;5.75;;;5.35;;
8401;SDS011;4238;48.404;9.498;2022-09-01T13:11:35;5.60;;;5.20;;
8401;SDS011;4238;48.404;9.498;2022-09-01T13:14:02;5.55;;;5.15;;
8401;SDS011;4238;48.404;9.498;2022-09-01T13:16:29;5.47;;;5.10;;
8401;SDS011;4238;48.404;9.498;2022-09-01T13:18:56;5.60;;;5.18;;
8401;SDS011;4238;48.404;9.498;2022-09-01T13:21:24;5.68;;;5.18;;
8401;SDS011;4238;48.404;9.498;2022-09-01T13:23:52;5.28;;;4.85;;
8401;SDS011;4238;48.404;9.498;2022-09-01T13:26:19;5.68;;;5.28;;
8401;SDS011;4238;48.404;9.498;2022-09-01T13:28:46;5.55;;;5.05;;
8401;SDS011;4238;48.404;9.498;2022-09-01T13:31:14;5.47;;;5.07;;
8401;SDS011;4238;48.404;9.498;2022-09-01T13:33:40;5.57;;;5.18;;
8401;SDS011;4238;48.404;9.498;2022-09-01T13:36:07;5.45;;;5.05;;
8401;SDS011;4238;48.404;9.498;2022-09-01T13:38:36;5.43;;;5.03;;
8401;SDS011;4238;48.404;9.498;2022-09-01T13:41:04;6.55;;;5.88;;
8401;SDS011;4238;48.404;9.498;2022-09-01T13:43:32;6.13;;;5.60;;
8401;SDS011;4238;48.404;9.498;2022-09-01T13:45:59;6.78;;;6.18;;
8401;SDS011;4238;48.404;9.498;2022-09-01T13:48:26;6.00;;;5.53;;
8401;SDS011;4238;48.404;9.498;2022-09-01T13:50:54;6.32;;;5.82;;
8401;SDS011;4238;48.404;9.498;2022-09-01T13:53:22;5.88;;;5.07;;
8401;SDS011;4238;48.404;9.498;2022-09-01T13:55:51;4.97;;;4.68;;
8401;SDS011;4238;48.404;9.498;2022-09-01T13:58:17;5.75;;;5.25;;
8401;SDS011;4238;48.404;9.498;2022-09-01T14:00:45;5.43;;;4.93;;
8401;SDS011;4238;48.404;9.498;2022-09-01T14:03:14;5.40;;;4.93;;
8401;SDS011;4238;48.404;9.498;2022-09-01T14:05:43;5.32;;;4.93;;
8401;SDS011;4238;48.404;9.498;2022-09-01T14:08:12;5.25;;;4.85;;
8401;SDS011;4238;48.404;9.498;2022-09-01T14:10:42;5.20;;;4.82;;
8401;SDS011;4238;48.404;9.498;2022-09-01T14:13:14;5.13;;;4.70;;
8401;SDS011;4238;48.404;9.498;2022-09-01T14:15:41;5.60;;;5.05;;
8401;SDS011;4238;48.404;9.498;2022-09-01T14:18:10;5.75;;;5.20;;
8401;SDS011;4238;48.404;9.498;2022-09-01T14:20:39;6.85;;;6.13;;
8401;SDS011;4238;48.404;9.498;2022-09-01T14:23:09;8.35;;;7.22;;
8401;SDS011;4238;48.404;9.498;2022-09-01T14:25:40;6.50;;;5.90;;
8401;SDS011;4238;48.404;9.498;2022-09-01T14:28:08;9.77;;;7.75;;
8401;SDS011;4238;48.404;9.498;2022-09-01T14:30:38;8.15;;;7.32;;
8401;SDS011;4238;48.404;9.498;2022-09-01T14:33:07;6.97;;;6.38;;
8401;SDS011;4238;48.404;9.498;2022-09-01T14:35:36;16.67;;;14.75;;
8401;SDS011;4238;48.404;9.498;2022-09-01T14:38:04;6.75;;;6.20;;
8401;SDS011;4238;48.404;9.498;2022-09-01T14:40:33;6.43;;;6.03;;
8401;SDS011;4238;48.404;9.498;2022-09-01T14:43:02;8.98;;;6.80;;
8401;SDS011;4238;48.404;9.498;2022-09-01T14:45:30;12.95;;;7.97;;
8401;SDS011;4238;48.404;9.498;2022-09-01T14:47:59;13.63;;;8.35;;
8401;SDS011;4238;48.404;9.498;2022-09-01T14:50:27;8.45;;;7.53;;
8401;SDS011;4238;48.404;9.498;2022-09-01T14:52:57;9.23;;;7.43;;
8401;SDS011;4238;48.404;9.498;2022-09-01T14:55:26;10.27;;;8.07;;
8401;SDS011;4238;48.404;9.498;2022-09-01T14:57:54;8.20;;;7.40;;
8401;SDS011;4238;48.404;9.498;2022-09-01T15:00:22;12.90;;;7.70;;
8401;SDS011;4238;48.404;9.498;2022-09-01T15:02:50;11.00;;;8.90;;
8401;SDS011;4238;48.404;9.498;2022-09-01T15:05:19;22.60;;;12.65;;
8401;SDS011;4238;48.404;9.498;2022-09-01T15:07:47;6.75;;;6.25;;
8401;SDS011;4238;48.404;9.498;2022-09-01T15:10:14;13.30;;;11.93;;
8401;SDS011;4238;48.404;9.498;2022-09-01T15:12:43;6.47;;;6.05;;
8401;SDS011;4238;48.404;9.498;2022-09-01T15:15:10;6.82;;;6.10;;
8401;SDS011;4238;48.404;9.498;2022-09-01T15:17:37;6.03;;;5.43;;
8401;SDS011;4238;48.404;9.498;2022-09-01T15:20:04;7.53;;;6.03;;
8401;SDS011;4238;48.404;9.498;2022-09-01T15:22:56;6.05;;;5.43;;
8401;SDS011;4238;48.404;9.498;2022-09-01T15:25:23;6.47;;;5.90;;
8401;SDS011;4238;48.404;9.498;2022-09-01T15:27:50;6.03;;;5.32;;
8401;SDS011;4238;48.404;9.498;2022-09-01T15:30:17;5.70;;;5.30;;
8401;SDS011;4238;48.404;9.498;2022-09-01T15:32:46;5.35;;;4.85;;
8401;SDS011;4238;48.404;9.498;2022-09-01T15:35:15;5.72;;;5.22;;
8401;SDS011;4238;48.404;9.498;2022-09-01T15:37:44;5.47;;;5.18;;
8401;SDS011;4238;48.404;9.498;2022-09-01T15:40:13;4.90;;;4.60;;
8401;SDS011;4238;48.404;9.498;2022-09-01T15:42:40;5.10;;;4.70;;